sensor_id;sensor_type;location;lat;lon;timestamp;P1;durP1;ratioP1;P2;durP2;ratioP2
12110;SDS011;6119;52.372;8.990;2024-01-30T00:01:29;9.57;;;6.53;;
12110;SDS011;6119;52.372;8.990;2024-01-30T00:04:16;8.70;;;6.40;;
12110;SDS011;6119;52.372;8.990;2024-01-30T00:07:03;9.80;;;6.60;;
12110;SDS011;6119;52.372;8.990;2024-01-30T00:09:50;8.80;;;6.03;;
12110;SDS011;6119;52.372;8.990;2024-01-30T00:12:37;8.67;;;6.13;;
12110;SDS011;6119;52.372;8.990;2024-01-30T00:15:24;9.40;;;6.80;;
12110;SDS011;6119;52.372;8.990;2024-01-30T00:18:10;8.77;;;6.53;;
12110;SDS011;6119;52.372;8.990;2024-01-30T00:20:57;8.80;;;6.27;;
12110;SDS011;6119;52.372;8.990;2024-01-30T00:23:43;11.40;;;6.90;;
12110;SDS011;6119;52.372;8.990;2024-01-30T00:26:30;9.20;;;6.77;;
12110;SDS011;6119;52.372;8.990;2024-01-30T00:29:17;9.13;;;7.30;;
12110;SDS011;6119;52.372;8.990;2024-01-30T00:32:06;11.17;;;6.57;;
12110;SDS011;6119;52.372;8.990;2024-01-30T00:34:53;10.83;;;6.70;;
12110;SDS011;6119;52.372;8.990;2024-01-30T00:37:40;8.87;;;6.70;;
12110;SDS011;6119;52.372;8.990;2024-01-30T00:40:26;7.90;;;6.17;;
12110;SDS011;6119;52.372;8.990;2024-01-30T00:43:13;11.07;;;7.60;;
12110;SDS011;6119;52.372;8.990;2024-01-30T00:46:01;11.53;;;6.90;;
12110;SDS011;6119;52.372;8.990;2024-01-30T00:48:49;10.23;;;7.50;;
12110;SDS011;6119;52.372;8.990;2024-01-30T00:51:35;9.33;;;7.57;;
12110;SDS011;6119;52.372;8.990;2024-01-30T00:54:22;8.17;;;6.90;;
12110;SDS011;6119;52.372;8.990;2024-01-30T00:57:09;10.43;;;7.53;;
12110;SDS011;6119;52.372;8.990;2024-01-30T00:59:55;12.17;;;7.80;;
12110;SDS011;6119;52.372;8.990;2024-01-30T01:02:44;8.57;;;6.80;;
12110;SDS011;6119;52.372;8.990;2024-01-30T01:05:31;9.37;;;6.87;;
12110;SDS011;6119;52.372;8.990;2024-01-30T01:08:17;9.10;;;6.77;;
12110;SDS011;6119;52.372;8.990;2024-01-30T01:11:05;9.23;;;7.23;;
12110;SDS011;6119;52.372;8.990;2024-01-30T01:13:51;8.53;;;6.67;;
12110;SDS011;6119;52.372;8.990;2024-01-30T01:16:38;10.87;;;7.23;;
12110;SDS011;6119;52.372;8.990;2024-01-30T01:19:26;11.33;;;6.97;;
12110;SDS011;6119;52.372;8.990;2024-01-30T01:22:13;10.83;;;6.90;;
12110;SDS011;6119;52.372;8.990;2024-01-30T01:25:00;8.83;;;7.07;;
12110;SDS011;6119;52.372;8.990;2024-01-30T01:27:47;11.17;;;7.23;;
12110;SDS011;6119;52.372;8.990;2024-01-30T01:30:36;9.80;;;5.97;;
12110;SDS011;6119;52.372;8.990;2024-01-30T01:33:24;11.37;;;7.27;;
12110;SDS011;6119;52.372;8.990;2024-01-30T01:36:12;9.33;;;6.53;;
12110;SDS011;6119;52.372;8.990;2024-01-30T01:38:59;8.80;;;6.90;;
12110;SDS011;6119;52.372;8.990;2024-01-30T01:41:46;10.77;;;7.77;;
12110;SDS011;6119;52.372;8.990;2024-01-30T01:44:32;9.33;;;7.27;;
12110;SDS011;6119;52.372;8.990;2024-01-30T01:47:19;9.63;;;7.60;;
12110;SDS011;6119;52.372;8.990;2024-01-30T01:50:06;9.30;;;7.23;;
12110;SDS011;6119;52.372;8.990;2024-01-30T01:52:55;11.93;;;7.37;;
12110;SDS011;6119;52.372;8.990;2024-01-30T01:55:42;12.73;;;6.83;;
12110;SDS011;6119;52.372;8.990;2024-01-30T01:58:28;11.03;;;7.40;;
12110;SDS011;6119;52.372;8.990;2024-01-30T02:01:16;11.83;;;7.23;;
12110;SDS011;6119;52.372;8.990;2024-01-30T02:04:06;12.43;;;8.00;;
12110;SDS011;6119;52.372;8.990;2024-01-30T02:06:53;10.73;;;7.73;;
12110;SDS011;6119;52.372;8.990;2024-01-30T02:09:42;8.33;;;7.23;;
12110;SDS011;6119;52.372;8.990;2024-01-30T02:12:29;10.27;;;7.50;;
12110;SDS011;6119;52.372;8.990;2024-01-30T02:15:16;8.50;;;7.10;;
12110;SDS011;6119;52.372;8.990;2024-01-30T02:18:03;10.03;;;6.67;;
12110;SDS011;6119;52.372;8.990;2024-01-30T02:20:50;12.23;;;7.43;;
12110;SDS011;6119;52.372;8.990;2024-01-30T02:23:41;11.17;;;7.67;;
12110;SDS011;6119;52.372;8.990;2024-01-30T02:26:30;9.70;;;7.77;;
12110;SDS011;6119;52.372;8.990;2024-01-30T02:29:17;12.17;;;8.47;;
12110;SDS011;6119;52.372;8.990;2024-01-30T02:32:04;12.17;;;8.00;;
12110;SDS011;6119;52.372;8.990;2024-01-30T02:34:52;11.17;;;8.17;;
12110;SDS011;6119;52.372;8.990;2024-01-30T02:37:39;10.27;;;7.60;;
12110;SDS011;6119;52.372;8.990;2024-01-30T02:40:27;10.27;;;7.33;;
12110;SDS011;6119;52.372;8.990;2024-01-30T02:43:14;10.90;;;7.73;;
12110;SDS011;6119;52.372;8.990;2024-01-30T02:46:01;9.53;;;7.47;;
12110;SDS011;6119;52.372;8.990;2024-01-30T02:48:49;10.43;;;8.33;;
12110;SDS011;6119;52.372;8.990;2024-01-30T02:51:35;11.63;;;8.10;;
12110;SDS011;6119;52.372;8.990;2024-01-30T02:54:22;12.63;;;8.30;;
12110;SDS011;6119;52.372;8.990;2024-01-30T02:57:10;11.80;;;7.50;;
12110;SDS011;6119;52.372;8.990;2024-01-30T02:59:57;11.73;;;7.77;;
12110;SDS011;6119;52.372;8.990;2024-01-30T03:02:44;10.90;;;8.30;;
12110;SDS011;6119;52.372;8.990;2024-01-30T03:05:30;11.27;;;7.87;;
12110;SDS011;6119;52.372;8.990;2024-01-30T03:08:17;13.30;;;7.40;;
12110;SDS011;6119;52.372;8.990;2024-01-30T03:11:06;10.90;;;7.37;;
12110;SDS011;6119;52.372;8.990;2024-01-30T03:13:54;10.70;;;8.10;;
12110;SDS011;6119;52.372;8.990;2024-01-30T03:16:41;11.40;;;7.90;;
12110;SDS011;6119;52.372;8.990;2024-01-30T03:19:27;11.83;;;8.37;;
12110;SDS011;6119;52.372;8.990;2024-01-30T03:22:14;12.80;;;8.37;;
12110;SDS011;6119;52.372;8.990;2024-01-30T03:25:01;10.47;;;8.07;;
12110;SDS011;6119;52.372;8.990;2024-01-30T03:27:48;8.80;;;7.27;;
12110;SDS011;6119;52.372;8.990;2024-01-30T03:30:36;12.00;;;8.07;;
12110;SDS011;6119;52.372;8.990;2024-01-30T03:33:23;13.37;;;8.17;;
12110;SDS011;6119;52.372;8.990;2024-01-30T03:36:09;10.97;;;7.97;;
12110;SDS011;6119;52.372;8.990;2024-01-30T03:38:56;12.17;;;8.43;;
12110;SDS011;6119;52.372;8.990;2024-01-30T03:41:43;15.63;;;10.40;;
12110;SDS011;6119;52.372;8.990;2024-01-30T03:44:30;19.83;;;11.63;;
12110;SDS011;6119;52.372;8.990;2024-01-30T03:47:18;13.97;;;10.07;;
12110;SDS011;6119;52.372;8.990;2024-01-30T03:50:05;12.83;;;8.73;;
12110;SDS011;6119;52.372;8.990;2024-01-30T03:52:52;14.83;;;8.97;;
12110;SDS011;6119;52.372;8.990;2024-01-30T03:55:39;11.17;;;8.10;;
12110;SDS011;6119;52.372;8.990;2024-01-30T03:58:25;13.13;;;8.53;;
12110;SDS011;6119;52.372;8.990;2024-01-30T04:01:13;10.03;;;8.20;;
12110;SDS011;6119;52.372;8.990;2024-01-30T04:04:01;11.87;;;8.00;;
12110;SDS011;6119;52.372;8.990;2024-01-30T04:06:48;11.77;;;7.90;;
12110;SDS011;6119;52.372;8.990;2024-01-30T04:09:35;10.53;;;7.83;;
12110;SDS011;6119;52.372;8.990;2024-01-30T04:12:22;10.33;;;7.07;;
12110;SDS011;6119;52.372;8.990;2024-01-30T04:15:08;11.03;;;7.63;;
12110;SDS011;6119;52.372;8.990;2024-01-30T04:17:57;15.10;;;8.47;;
12110;SDS011;6119;52.372;8.990;2024-01-30T04:20:45;11.23;;;8.13;;
12110;SDS011;6119;52.372;8.990;2024-01-30T04:23:32;12.07;;;7.77;;
12110;SDS011;6119;52.372;8.990;2024-01-30T04:26:18;11.30;;;8.17;;
12110;SDS011;6119;52.372;8.990;2024-01-30T04:29:05;11.27;;;8.13;;
12110;SDS011;6119;52.372;8.990;2024-01-30T04:31:52;11.70;;;8.33;;
12110;SDS011;6119;52.372;8.990;2024-01-30T04:34:38;10.10;;;8.00;;
12110;SDS011;6119;52.372;8.990;2024-01-30T04:37:26;10.90;;;7.93;;
12110;SDS011;6119;52.372;8.990;2024-01-30T04:40:13;11.93;;;7.97;;
12110;SDS011;6119;52.372;8.990;2024-01-30T04:42:59;10.53;;;8.47;;
12110;SDS011;6119;52.372;8.990;2024-01-30T04:45:47;14.13;;;8.50;;
12110;SDS011;6119;52.372;8.990;2024-01-30T04:48:34;12.27;;;8.40;;
12110;SDS011;6119;52.372;8.990;2024-01-30T04:51:21;13.93;;;8.50;;
12110;SDS011;6119;52.372;8.990;2024-01-30T04:54:09;10.20;;;7.77;;
12110;SDS011;6119;52.372;8.990;2024-01-30T04:56:55;10.70;;;7.83;;
12110;SDS011;6119;52.372;8.990;2024-01-30T04:59:42;12.17;;;8.23;;
12110;SDS011;6119;52.372;8.990;2024-01-30T05:02:29;13.00;;;8.07;;
12110;SDS011;6119;52.372;8.990;2024-01-30T05:05:15;11.87;;;8.43;;
12110;SDS011;6119;52.372;8.990;2024-01-30T05:08:02;12.77;;;8.10;;
12110;SDS011;6119;52.372;8.990;2024-01-30T05:10:50;10.20;;;7.93;;
12110;SDS011;6119;52.372;8.990;2024-01-30T05:13:37;10.97;;;8.07;;
12110;SDS011;6119;52.372;8.990;2024-01-30T05:16:23;13.33;;;8.97;;
12110;SDS011;6119;52.372;8.990;2024-01-30T05:19:10;12.23;;;8.73;;
12110;SDS011;6119;52.372;8.990;2024-01-30T05:21:56;13.83;;;9.20;;
12110;SDS011;6119;52.372;8.990;2024-01-30T05:24:43;12.83;;;9.13;;
12110;SDS011;6119;52.372;8.990;2024-01-30T05:27:31;15.47;;;10.00;;
12110;SDS011;6119;52.372;8.990;2024-01-30T05:30:18;16.57;;;9.90;;
12110;SDS011;6119;52.372;8.990;2024-01-30T05:33:04;15.07;;;8.80;;
12110;SDS011;6119;52.372;8.990;2024-01-30T05:35:51;18.23;;;9.93;;
12110;SDS011;6119;52.372;8.990;2024-01-30T05:38:39;15.43;;;9.23;;
12110;SDS011;6119;52.372;8.990;2024-01-30T05:41:26;12.53;;;9.37;;
12110;SDS011;6119;52.372;8.990;2024-01-30T05:44:13;17.23;;;9.50;;
12110;SDS011;6119;52.372;8.990;2024-01-30T05:47:00;14.30;;;9.73;;
12110;SDS011;6119;52.372;8.990;2024-01-30T05:49:47;16.03;;;9.23;;
12110;SDS011;6119;52.372;8.990;2024-01-30T05:52:33;14.00;;;9.27;;
12110;SDS011;6119;52.372;8.990;2024-01-30T05:55:21;14.57;;;9.27;;
12110;SDS011;6119;52.372;8.990;2024-01-30T05:58:08;17.03;;;9.83;;
12110;SDS011;6119;52.372;8.990;2024-01-30T06:00:56;13.60;;;9.83;;
12110;SDS011;6119;52.372;8.990;2024-01-30T06:03:43;14.93;;;8.93;;
12110;SDS011;6119;52.372;8.990;2024-01-30T06:06:30;12.47;;;9.17;;
12110;SDS011;6119;52.372;8.990;2024-01-30T06:09:16;15.60;;;9.43;;
12110;SDS011;6119;52.372;8.990;2024-01-30T06:12:03;13.87;;;8.70;;
12110;SDS011;6119;52.372;8.990;2024-01-30T06:14:51;15.93;;;8.93;;
12110;SDS011;6119;52.372;8.990;2024-01-30T06:17:40;16.37;;;9.30;;
12110;SDS011;6119;52.372;8.990;2024-01-30T06:20:27;17.80;;;9.47;;
12110;SDS011;6119;52.372;8.990;2024-01-30T06:23:14;11.73;;;8.60;;
12110;SDS011;6119;52.372;8.990;2024-01-30T06:26:00;12.97;;;8.83;;
12110;SDS011;6119;52.372;8.990;2024-01-30T06:28:47;15.03;;;9.63;;
12110;SDS011;6119;52.372;8.990;2024-01-30T06:31:39;12.43;;;8.27;;
12110;SDS011;6119;52.372;8.990;2024-01-30T06:34:28;12.07;;;8.97;;
12110;SDS011;6119;52.372;8.990;2024-01-30T06:37:16;11.03;;;8.17;;
12110;SDS011;6119;52.372;8.990;2024-01-30T06:40:02;10.07;;;8.17;;
12110;SDS011;6119;52.372;8.990;2024-01-30T06:42:50;12.03;;;8.23;;
12110;SDS011;6119;52.372;8.990;2024-01-30T06:45:37;12.20;;;9.13;;
12110;SDS011;6119;52.372;8.990;2024-01-30T06:48:23;12.10;;;9.03;;
12110;SDS011;6119;52.372;8.990;2024-01-30T06:51:11;11.87;;;8.30;;
12110;SDS011;6119;52.372;8.990;2024-01-30T06:54:02;14.53;;;8.93;;
12110;SDS011;6119;52.372;8.990;2024-01-30T06:56:49;12.53;;;8.00;;
12110;SDS011;6119;52.372;8.990;2024-01-30T06:59:36;15.13;;;8.60;;
12110;SDS011;6119;52.372;8.990;2024-01-30T07:02:26;15.57;;;9.00;;
12110;SDS011;6119;52.372;8.990;2024-01-30T07:05:13;15.43;;;8.70;;
12110;SDS011;6119;52.372;8.990;2024-01-30T07:08:01;12.80;;;8.70;;
12110;SDS011;6119;52.372;8.990;2024-01-30T07:10:48;13.70;;;8.87;;
12110;SDS011;6119;52.372;8.990;2024-01-30T07:13:35;11.87;;;8.57;;
12110;SDS011;6119;52.372;8.990;2024-01-30T07:16:21;12.77;;;9.40;;
12110;SDS011;6119;52.372;8.990;2024-01-30T07:19:08;12.13;;;8.83;;
12110;SDS011;6119;52.372;8.990;2024-01-30T07:21:55;12.30;;;8.60;;
12110;SDS011;6119;52.372;8.990;2024-01-30T07:24:44;15.50;;;9.07;;
12110;SDS011;6119;52.372;8.990;2024-01-30T07:27:33;12.53;;;8.23;;
12110;SDS011;6119;52.372;8.990;2024-01-30T07:30:19;14.30;;;8.90;;
12110;SDS011;6119;52.372;8.990;2024-01-30T07:33:06;16.30;;;9.07;;
12110;SDS011;6119;52.372;8.990;2024-01-30T07:35:53;13.67;;;9.07;;
12110;SDS011;6119;52.372;8.990;2024-01-30T07:38:40;13.37;;;9.23;;
12110;SDS011;6119;52.372;8.990;2024-01-30T07:41:28;12.80;;;9.30;;
12110;SDS011;6119;52.372;8.990;2024-01-30T07:44:15;17.93;;;9.97;;
12110;SDS011;6119;52.372;8.990;2024-01-30T07:47:02;13.17;;;9.90;;
12110;SDS011;6119;52.372;8.990;2024-01-30T07:49:49;16.17;;;8.87;;
12110;SDS011;6119;52.372;8.990;2024-01-30T07:52:36;11.83;;;8.93;;
12110;SDS011;6119;52.372;8.990;2024-01-30T07:55:24;15.03;;;9.53;;
12110;SDS011;6119;52.372;8.990;2024-01-30T07:58:15;16.87;;;9.50;;
12110;SDS011;6119;52.372;8.990;2024-01-30T08:01:02;14.53;;;8.93;;
12110;SDS011;6119;52.372;8.990;2024-01-30T08:03:49;13.10;;;9.00;;
12110;SDS011;6119;52.372;8.990;2024-01-30T08:06:36;15.87;;;9.10;;
12110;SDS011;6119;52.372;8.990;2024-01-30T08:09:26;12.63;;;9.40;;
12110;SDS011;6119;52.372;8.990;2024-01-30T08:12:13;13.90;;;9.53;;
12110;SDS011;6119;52.372;8.990;2024-01-30T08:15:01;13.57;;;9.27;;
12110;SDS011;6119;52.372;8.990;2024-01-30T08:17:48;11.80;;;9.60;;
12110;SDS011;6119;52.372;8.990;2024-01-30T08:20:34;14.30;;;9.27;;
12110;SDS011;6119;52.372;8.990;2024-01-30T08:23:21;11.87;;;8.93;;
12110;SDS011;6119;52.372;8.990;2024-01-30T08:26:08;11.93;;;8.50;;
12110;SDS011;6119;52.372;8.990;2024-01-30T08:28:54;15.87;;;9.70;;
12110;SDS011;6119;52.372;8.990;2024-01-30T08:31:43;15.13;;;9.50;;
12110;SDS011;6119;52.372;8.990;2024-01-30T08:34:31;13.40;;;9.53;;
12110;SDS011;6119;52.372;8.990;2024-01-30T08:37:18;13.17;;;9.53;;
12110;SDS011;6119;52.372;8.990;2024-01-30T08:40:05;12.63;;;9.70;;
12110;SDS011;6119;52.372;8.990;2024-01-30T08:42:53;13.07;;;9.00;;
12110;SDS011;6119;52.372;8.990;2024-01-30T08:45:40;14.77;;;9.43;;
12110;SDS011;6119;52.372;8.990;2024-01-30T08:48:29;16.73;;;9.80;;
12110;SDS011;6119;52.372;8.990;2024-01-30T08:51:16;15.57;;;10.47;;
12110;SDS011;6119;52.372;8.990;2024-01-30T08:54:02;15.43;;;9.73;;
12110;SDS011;6119;52.372;8.990;2024-01-30T08:56:49;19.20;;;10.63;;
12110;SDS011;6119;52.372;8.990;2024-01-30T08:59:37;14.80;;;9.70;;
12110;SDS011;6119;52.372;8.990;2024-01-30T09:02:23;13.87;;;9.77;;
12110;SDS011;6119;52.372;8.990;2024-01-30T09:05:11;15.33;;;9.77;;
12110;SDS011;6119;52.372;8.990;2024-01-30T09:07:58;14.90;;;9.17;;
12110;SDS011;6119;52.372;8.990;2024-01-30T09:10:45;11.77;;;9.10;;
12110;SDS011;6119;52.372;8.990;2024-01-30T09:13:33;17.23;;;8.93;;
12110;SDS011;6119;52.372;8.990;2024-01-30T09:16:19;14.17;;;9.73;;
12110;SDS011;6119;52.372;8.990;2024-01-30T09:19:06;15.53;;;9.70;;
12110;SDS011;6119;52.372;8.990;2024-01-30T09:21:54;14.93;;;9.67;;
12110;SDS011;6119;52.372;8.990;2024-01-30T09:24:41;20.20;;;9.50;;
12110;SDS011;6119;52.372;8.990;2024-01-30T09:27:27;13.83;;;8.97;;
12110;SDS011;6119;52.372;8.990;2024-01-30T09:30:14;14.97;;;9.60;;
12110;SDS011;6119;52.372;8.990;2024-01-30T09:33:00;15.93;;;8.30;;
12110;SDS011;6119;52.372;8.990;2024-01-30T09:35:47;9.80;;;7.77;;
12110;SDS011;6119;52.372;8.990;2024-01-30T09:38:36;10.90;;;7.50;;
12110;SDS011;6119;52.372;8.990;2024-01-30T09:41:23;11.20;;;7.70;;
12110;SDS011;6119;52.372;8.990;2024-01-30T09:44:10;12.03;;;7.87;;
12110;SDS011;6119;52.372;8.990;2024-01-30T09:46:58;12.27;;;7.67;;
12110;SDS011;6119;52.372;8.990;2024-01-30T09:49:48;9.40;;;7.83;;
12110;SDS011;6119;52.372;8.990;2024-01-30T09:52:36;8.93;;;7.53;;
12110;SDS011;6119;52.372;8.990;2024-01-30T09:55:24;11.70;;;7.50;;
12110;SDS011;6119;52.372;8.990;2024-01-30T09:58:12;10.17;;;7.40;;
12110;SDS011;6119;52.372;8.990;2024-01-30T10:00:59;10.30;;;7.93;;
12110;SDS011;6119;52.372;8.990;2024-01-30T10:03:46;10.33;;;7.90;;
12110;SDS011;6119;52.372;8.990;2024-01-30T10:06:33;9.87;;;7.47;;
12110;SDS011;6119;52.372;8.990;2024-01-30T10:09:21;10.70;;;7.97;;
12110;SDS011;6119;52.372;8.990;2024-01-30T10:12:09;11.33;;;7.83;;
12110;SDS011;6119;52.372;8.990;2024-01-30T10:14:56;9.00;;;7.13;;
12110;SDS011;6119;52.372;8.990;2024-01-30T10:17:43;10.43;;;7.53;;
12110;SDS011;6119;52.372;8.990;2024-01-30T10:20:30;10.47;;;7.77;;
12110;SDS011;6119;52.372;8.990;2024-01-30T10:23:17;10.37;;;7.23;;
12110;SDS011;6119;52.372;8.990;2024-01-30T10:26:04;11.83;;;7.50;;
12110;SDS011;6119;52.372;8.990;2024-01-30T10:28:54;8.50;;;6.67;;
12110;SDS011;6119;52.372;8.990;2024-01-30T10:31:41;9.30;;;7.03;;
12110;SDS011;6119;52.372;8.990;2024-01-30T10:34:28;11.77;;;7.20;;
12110;SDS011;6119;52.372;8.990;2024-01-30T10:37:15;9.03;;;6.73;;
12110;SDS011;6119;52.372;8.990;2024-01-30T10:40:04;9.20;;;6.73;;
12110;SDS011;6119;52.372;8.990;2024-01-30T10:42:53;9.73;;;7.20;;
12110;SDS011;6119;52.372;8.990;2024-01-30T10:45:43;11.90;;;7.30;;
12110;SDS011;6119;52.372;8.990;2024-01-30T10:48:36;10.30;;;8.27;;
12110;SDS011;6119;52.372;8.990;2024-01-30T10:51:28;10.47;;;8.33;;
12110;SDS011;6119;52.372;8.990;2024-01-30T10:54:15;8.83;;;7.10;;
12110;SDS011;6119;52.372;8.990;2024-01-30T10:57:03;10.40;;;7.07;;
12110;SDS011;6119;52.372;8.990;2024-01-30T10:59:53;10.27;;;7.23;;
12110;SDS011;6119;52.372;8.990;2024-01-30T11:02:44;10.03;;;6.73;;
12110;SDS011;6119;52.372;8.990;2024-01-30T11:05:31;8.83;;;6.53;;
12110;SDS011;6119;52.372;8.990;2024-01-30T11:08:23;14.97;;;6.47;;
12110;SDS011;6119;52.372;8.990;2024-01-30T11:11:11;9.03;;;6.27;;
12110;SDS011;6119;52.372;8.990;2024-01-30T11:14:02;9.07;;;6.70;;
12110;SDS011;6119;52.372;8.990;2024-01-30T11:16:48;8.63;;;7.30;;
12110;SDS011;6119;52.372;8.990;2024-01-30T11:19:37;9.63;;;7.20;;
12110;SDS011;6119;52.372;8.990;2024-01-30T11:22:24;9.70;;;7.43;;
12110;SDS011;6119;52.372;8.990;2024-01-30T11:25:11;9.93;;;6.30;;
12110;SDS011;6119;52.372;8.990;2024-01-30T11:27:59;10.90;;;6.73;;
12110;SDS011;6119;52.372;8.990;2024-01-30T11:30:46;13.10;;;6.73;;
12110;SDS011;6119;52.372;8.990;2024-01-30T11:33:35;9.10;;;6.23;;
12110;SDS011;6119;52.372;8.990;2024-01-30T11:36:25;8.83;;;6.33;;
12110;SDS011;6119;52.372;8.990;2024-01-30T11:39:12;10.10;;;5.57;;
12110;SDS011;6119;52.372;8.990;2024-01-30T11:42:01;11.03;;;6.07;;
12110;SDS011;6119;52.372;8.990;2024-01-30T11:44:50;11.23;;;5.90;;
12110;SDS011;6119;52.372;8.990;2024-01-30T11:47:38;10.43;;;6.07;;
12110;SDS011;6119;52.372;8.990;2024-01-30T11:50:28;11.53;;;5.97;;
12110;SDS011;6119;52.372;8.990;2024-01-30T11:53:18;10.53;;;6.13;;
12110;SDS011;6119;52.372;8.990;2024-01-30T11:56:05;10.93;;;6.43;;
12110;SDS011;6119;52.372;8.990;2024-01-30T11:58:53;7.53;;;5.37;;
12110;SDS011;6119;52.372;8.990;2024-01-30T12:01:40;8.83;;;6.20;;
12110;SDS011;6119;52.372;8.990;2024-01-30T12:04:28;8.93;;;5.53;;
12110;SDS011;6119;52.372;8.990;2024-01-30T12:07:15;13.23;;;6.10;;
12110;SDS011;6119;52.372;8.990;2024-01-30T12:10:04;7.00;;;5.17;;
12110;SDS011;6119;52.372;8.990;2024-01-30T12:12:53;8.60;;;5.53;;
12110;SDS011;6119;52.372;8.990;2024-01-30T12:15:40;12.83;;;5.50;;
12110;SDS011;6119;52.372;8.990;2024-01-30T12:18:27;8.03;;;5.00;;
12110;SDS011;6119;52.372;8.990;2024-01-30T12:21:15;9.57;;;5.83;;
12110;SDS011;6119;52.372;8.990;2024-01-30T12:24:03;8.20;;;5.60;;
12110;SDS011;6119;52.372;8.990;2024-01-30T12:26:53;9.63;;;5.73;;
12110;SDS011;6119;52.372;8.990;2024-01-30T12:29:43;7.43;;;5.60;;
12110;SDS011;6119;52.372;8.990;2024-01-30T12:32:29;9.70;;;5.53;;
12110;SDS011;6119;52.372;8.990;2024-01-30T12:35:16;8.67;;;5.70;;
12110;SDS011;6119;52.372;8.990;2024-01-30T12:38:04;5.43;;;4.80;;
12110;SDS011;6119;52.372;8.990;2024-01-30T12:40:53;8.50;;;5.20;;
12110;SDS011;6119;52.372;8.990;2024-01-30T12:43:42;6.97;;;5.10;;
12110;SDS011;6119;52.372;8.990;2024-01-30T12:46:29;7.13;;;5.03;;
12110;SDS011;6119;52.372;8.990;2024-01-30T12:49:16;8.63;;;5.50;;
12110;SDS011;6119;52.372;8.990;2024-01-30T12:52:03;8.73;;;5.03;;
12110;SDS011;6119;52.372;8.990;2024-01-30T12:54:50;7.77;;;5.30;;
12110;SDS011;6119;52.372;8.990;2024-01-30T12:57:37;7.90;;;5.17;;
12110;SDS011;6119;52.372;8.990;2024-01-30T13:00:25;6.60;;;4.90;;
12110;SDS011;6119;52.372;8.990;2024-01-30T13:03:12;8.10;;;5.10;;
12110;SDS011;6119;52.372;8.990;2024-01-30T13:05:59;6.60;;;5.17;;
12110;SDS011;6119;52.372;8.990;2024-01-30T13:08:46;6.97;;;5.23;;
12110;SDS011;6119;52.372;8.990;2024-01-30T13:11:33;8.90;;;6.07;;
12110;SDS011;6119;52.372;8.990;2024-01-30T13:14:20;14.13;;;5.67;;
12110;SDS011;6119;52.372;8.990;2024-01-30T13:17:08;8.30;;;5.43;;
12110;SDS011;6119;52.372;8.990;2024-01-30T13:19:54;9.67;;;5.50;;
12110;SDS011;6119;52.372;8.990;2024-01-30T13:22:51;13.70;;;5.67;;
12110;SDS011;6119;52.372;8.990;2024-01-30T13:25:38;7.93;;;5.37;;
12110;SDS011;6119;52.372;8.990;2024-01-30T13:28:24;13.93;;;6.10;;
12110;SDS011;6119;52.372;8.990;2024-01-30T13:31:11;8.13;;;5.33;;
12110;SDS011;6119;52.372;8.990;2024-01-30T13:34:00;9.07;;;5.50;;
12110;SDS011;6119;52.372;8.990;2024-01-30T13:36:48;8.23;;;5.53;;
12110;SDS011;6119;52.372;8.990;2024-01-30T13:39:35;8.00;;;5.27;;
12110;SDS011;6119;52.372;8.990;2024-01-30T13:42:23;10.20;;;5.87;;
12110;SDS011;6119;52.372;8.990;2024-01-30T13:45:10;10.87;;;7.27;;
12110;SDS011;6119;52.372;8.990;2024-01-30T13:47:56;9.97;;;6.37;;
12110;SDS011;6119;52.372;8.990;2024-01-30T13:50:46;10.00;;;6.30;;
12110;SDS011;6119;52.372;8.990;2024-01-30T13:53:33;10.13;;;7.60;;
12110;SDS011;6119;52.372;8.990;2024-01-30T13:56:19;10.47;;;7.40;;
12110;SDS011;6119;52.372;8.990;2024-01-30T13:59:07;12.77;;;7.20;;
12110;SDS011;6119;52.372;8.990;2024-01-30T14:01:54;16.93;;;10.53;;
12110;SDS011;6119;52.372;8.990;2024-01-30T14:04:40;12.77;;;7.60;;
12110;SDS011;6119;52.372;8.990;2024-01-30T14:07:28;10.63;;;6.53;;
12110;SDS011;6119;52.372;8.990;2024-01-30T14:10:15;10.43;;;6.33;;
12110;SDS011;6119;52.372;8.990;2024-01-30T14:13:02;14.27;;;6.53;;
12110;SDS011;6119;52.372;8.990;2024-01-30T14:15:49;9.40;;;6.67;;
12110;SDS011;6119;52.372;8.990;2024-01-30T14:18:35;10.97;;;6.63;;
12110;SDS011;6119;52.372;8.990;2024-01-30T14:21:22;12.63;;;6.70;;
12110;SDS011;6119;52.372;8.990;2024-01-30T14:24:11;9.57;;;7.00;;
12110;SDS011;6119;52.372;8.990;2024-01-30T14:26:57;11.90;;;7.13;;
12110;SDS011;6119;52.372;8.990;2024-01-30T14:29:44;9.30;;;7.10;;
12110;SDS011;6119;52.372;8.990;2024-01-30T14:32:31;11.53;;;7.57;;
12110;SDS011;6119;52.372;8.990;2024-01-30T14:35:17;10.53;;;7.10;;
12110;SDS011;6119;52.372;8.990;2024-01-30T14:38:05;12.37;;;9.03;;
12110;SDS011;6119;52.372;8.990;2024-01-30T14:40:54;14.63;;;10.10;;
12110;SDS011;6119;52.372;8.990;2024-01-30T14:43:41;13.47;;;8.20;;
12110;SDS011;6119;52.372;8.990;2024-01-30T14:46:27;13.77;;;8.20;;
12110;SDS011;6119;52.372;8.990;2024-01-30T14:49:15;10.17;;;7.20;;
12110;SDS011;6119;52.372;8.990;2024-01-30T14:52:02;14.00;;;8.23;;
12110;SDS011;6119;52.372;8.990;2024-01-30T14:54:50;14.20;;;7.40;;
12110;SDS011;6119;52.372;8.990;2024-01-30T14:57:38;10.87;;;7.37;;
12110;SDS011;6119;52.372;8.990;2024-01-30T15:00:27;11.87;;;7.53;;
12110;SDS011;6119;52.372;8.990;2024-01-30T15:03:14;12.60;;;7.47;;
12110;SDS011;6119;52.372;8.990;2024-01-30T15:06:02;10.80;;;7.20;;
12110;SDS011;6119;52.372;8.990;2024-01-30T15:08:50;11.63;;;8.17;;
12110;SDS011;6119;52.372;8.990;2024-01-30T15:11:37;14.33;;;8.50;;
12110;SDS011;6119;52.372;8.990;2024-01-30T15:14:25;13.27;;;8.40;;
12110;SDS011;6119;52.372;8.990;2024-01-30T15:17:12;10.43;;;8.27;;
12110;SDS011;6119;52.372;8.990;2024-01-30T15:19:58;11.73;;;7.97;;
12110;SDS011;6119;52.372;8.990;2024-01-30T15:22:45;12.97;;;8.17;;
12110;SDS011;6119;52.372;8.990;2024-01-30T15:25:32;15.90;;;9.73;;
12110;SDS011;6119;52.372;8.990;2024-01-30T15:28:22;14.80;;;10.27;;
12110;SDS011;6119;52.372;8.990;2024-01-30T15:31:21;15.43;;;8.77;;
12110;SDS011;6119;52.372;8.990;2024-01-30T15:34:07;13.83;;;8.40;;
12110;SDS011;6119;52.372;8.990;2024-01-30T15:36:54;11.57;;;9.10;;
12110;SDS011;6119;52.372;8.990;2024-01-30T15:39:40;11.57;;;8.63;;
12110;SDS011;6119;52.372;8.990;2024-01-30T15:42:27;16.10;;;8.33;;
12110;SDS011;6119;52.372;8.990;2024-01-30T15:45:14;9.13;;;6.93;;
12110;SDS011;6119;52.372;8.990;2024-01-30T15:48:03;11.57;;;6.80;;
12110;SDS011;6119;52.372;8.990;2024-01-30T15:50:50;11.57;;;7.70;;
12110;SDS011;6119;52.372;8.990;2024-01-30T15:53:36;11.27;;;6.90;;
12110;SDS011;6119;52.372;8.990;2024-01-30T15:56:23;9.87;;;7.07;;
12110;SDS011;6119;52.372;8.990;2024-01-30T15:59:10;8.27;;;6.90;;
12110;SDS011;6119;52.372;8.990;2024-01-30T16:01:58;11.07;;;6.13;;
12110;SDS011;6119;52.372;8.990;2024-01-30T16:04:47;11.03;;;6.50;;
12110;SDS011;6119;52.372;8.990;2024-01-30T16:07:34;11.97;;;7.00;;
12110;SDS011;6119;52.372;8.990;2024-01-30T16:10:21;9.73;;;7.43;;
12110;SDS011;6119;52.372;8.990;2024-01-30T16:13:07;10.80;;;7.27;;
12110;SDS011;6119;52.372;8.990;2024-01-30T16:15:54;10.03;;;7.30;;
12110;SDS011;6119;52.372;8.990;2024-01-30T16:18:41;11.30;;;7.43;;
12110;SDS011;6119;52.372;8.990;2024-01-30T16:21:29;10.53;;;6.97;;
12110;SDS011;6119;52.372;8.990;2024-01-30T16:24:16;9.33;;;7.07;;
12110;SDS011;6119;52.372;8.990;2024-01-30T16:27:03;8.87;;;7.00;;
12110;SDS011;6119;52.372;8.990;2024-01-30T16:29:50;8.93;;;6.43;;
12110;SDS011;6119;52.372;8.990;2024-01-30T16:32:37;9.80;;;6.93;;
12110;SDS011;6119;52.372;8.990;2024-01-30T16:35:24;10.03;;;6.53;;
12110;SDS011;6119;52.372;8.990;2024-01-30T16:38:31;11.37;;;6.77;;
12110;SDS011;6119;52.372;8.990;2024-01-30T16:41:18;11.30;;;6.63;;
12110;SDS011;6119;52.372;8.990;2024-01-30T16:44:05;13.93;;;6.77;;
12110;SDS011;6119;52.372;8.990;2024-01-30T16:46:52;11.37;;;6.77;;
12110;SDS011;6119;52.372;8.990;2024-01-30T16:49:38;9.63;;;6.77;;
12110;SDS011;6119;52.372;8.990;2024-01-30T16:52:26;12.50;;;6.27;;